Map

Track Data

SID SEASON NUMBER BASIN SUBBASIN NAME ISO_TIME NATURE LAT LON WMO_WIND WMO_PRES WMO_AGENCY TRACK_TYPE DIST2LAND LANDFALL IFLAG USA_AGENCY USA_ATCF_ID USA_LAT USA_LON USA_RECORD USA_STATUS USA_WIND USA_PRES USA_SSHS USA_R34_NE USA_R34_SE USA_R34_SW USA_R34_NW USA_R50_NE USA_R50_SE USA_R50_SW USA_R50_NW USA_R64_NE USA_R64_SE USA_R64_SW USA_R64_NW USA_POCI USA_ROCI USA_RMW USA_EYE TOKYO_LAT TOKYO_LON TOKYO_GRADE TOKYO_WIND TOKYO_PRES TOKYO_R50_DIR TOKYO_R50_LONG TOKYO_R50_SHORT TOKYO_R30_DIR TOKYO_R30_LONG TOKYO_R30_SHORT TOKYO_LAND CMA_LAT CMA_LON CMA_CAT CMA_WIND CMA_PRES HKO_LAT HKO_LON HKO_CAT HKO_WIND HKO_PRES NEWDELHI_LAT NEWDELHI_LON NEWDELHI_GRADE NEWDELHI_WIND NEWDELHI_PRES NEWDELHI_CI NEWDELHI_DP NEWDELHI_POCI REUNION_LAT REUNION_LON REUNION_TYPE REUNION_WIND REUNION_PRES REUNION_TNUM REUNION_CI REUNION_RMW REUNION_R34_NE REUNION_R34_SE REUNION_R34_SW REUNION_R34_NW REUNION_R50_NE REUNION_R50_SE REUNION_R50_SW REUNION_R50_NW REUNION_R64_NE REUNION_R64_SE REUNION_R64_SW REUNION_R64_NW BOM_LAT BOM_LON BOM_TYPE BOM_WIND BOM_PRES BOM_TNUM BOM_CI BOM_RMW BOM_R34_NE BOM_R34_SE BOM_R34_SW BOM_R34_NW BOM_R50_NE BOM_R50_SE BOM_R50_SW BOM_R50_NW BOM_R64_NE BOM_R64_SE BOM_R64_SW BOM_R64_NW BOM_ROCI BOM_POCI BOM_EYE BOM_POS_METHOD BOM_PRES_METHOD NADI_LAT NADI_LON NADI_CAT NADI_WIND NADI_PRES WELLINGTON_LAT WELLINGTON_LON WELLINGTON_WIND WELLINGTON_PRES DS824_LAT DS824_LON DS824_STAGE DS824_WIND DS824_PRES TD9636_LAT TD9636_LON TD9636_STAGE TD9636_WIND TD9636_PRES TD9635_LAT TD9635_LON TD9635_WIND TD9635_PRES TD9635_ROCI NEUMANN_LAT NEUMANN_LON NEUMANN_CLASS NEUMANN_WIND NEUMANN_PRES MLC_LAT MLC_LON MLC_CLASS MLC_WIND MLC_PRES USA_GUST BOM_GUST BOM_GUST_PER REUNION_GUST REUNION_GUST_PER USA_SEAHGT USA_SEARAD_NE USA_SEARAD_SE USA_SEARAD_SW USA_SEARAD_NW STORM_SPEED STORM_DIR
1954008S12066 1954 3 SI MM NOT_NAMED 1954-01-08 06:00:00 NR -11.6000 65.6000 reunion main 1271 1271 _____O________ -1 -11.6000 65.6000 99 9.90000 1 0
1954008S12066 1954 3 SI MM NOT_NAMED 1954-01-08 09:00:00 NR -11.5886 65.6262 main 1271 1271 _____P________ -1 -11.5886 65.6262 99 0 59
1954008S12066 1954 3 SI MM NOT_NAMED 1954-01-08 12:00:00 NR -11.5795 65.6416 main 1271 1271 _____P________ -1 -11.5795 65.6416 99 0 0
1954008S12066 1954 3 SI MM NOT_NAMED 1954-01-08 15:00:00 NR -11.5750 65.6353 main 1271 1271 _____P________ -1 -11.5750 65.6353 99 0 273
1954008S12066 1954 3 SI MM NOT_NAMED 1954-01-08 18:00:00 NR -11.5774 65.5966 main 1271 1264 _____P________ -1 -11.5774 65.5966 99 1 263
1954008S12066 1954 3 SI MM NOT_NAMED 1954-01-08 21:00:00 NR -11.5888 65.5146 main 1264 1257 _____P________ -1 -11.5888 65.5146 99 2 261
1954008S12066 1954 3 SI MM NOT_NAMED 1954-01-09 00:00:00 NR -11.6116 65.3784 main 1257 1244 _____P________ -1 -11.6116 65.3784 99 3 260
1954008S12066 1954 3 SI MM NOT_NAMED 1954-01-09 03:00:00 NR -11.6480 65.1772 main 1244 1214 _____P________ -1 -11.6480 65.1772 99 5 259
1954008S12066 1954 3 SI MM NOT_NAMED 1954-01-09 06:00:00 NR -11.7000 64.9000 reunion main 1214 1185 _____O________ -1 -11.7000 64.9000 99 9.90000 6 259
1954008S12066 1954 3 SI MM NOT_NAMED 1954-01-09 09:00:00 NR -11.7693 64.5407 main 1179 1144 _____P________ -1 -11.7693 64.5407 99 8 259
1954008S12066 1954 3 SI MM NOT_NAMED 1954-01-09 12:00:00 NR -11.8556 64.1124 main 1144 1110 _____P________ -1 -11.8556 64.1124 99 9 258
1954008S12066 1954 3 SI MM NOT_NAMED 1954-01-09 15:00:00 NR -11.9583 63.6330 main 1103 1064 _____P________ -1 -11.9583 63.6330 99 10 257
1954008S12066 1954 3 SI MM NOT_NAMED 1954-01-09 18:00:00 NR -12.0767 63.1205 main 1064 1027 _____P________ -1 -12.0767 63.1205 99 10 256
1954008S12066 1954 3 SI MM NOT_NAMED 1954-01-09 21:00:00 NR -12.2103 62.5929 main 1027 981 _____P________ -1 -12.2103 62.5929 99 11 255
1954008S12066 1954 3 SI MM NOT_NAMED 1954-01-10 00:00:00 NR -12.3589 62.0682 main 981 946 _____P________ -1 -12.3589 62.0682 99 11 253
1954008S12066 1954 3 SI MM NOT_NAMED 1954-01-10 03:00:00 NR -12.5222 61.5646 main 946 904 _____P________ -1 -12.5222 61.5646 99 10 250
1954008S12066 1954 3 SI MM NOT_NAMED 1954-01-10 06:00:00 NR -12.7000 61.1000 reunion main 904 870 _____O________ -1 -12.7000 61.1000 99 9.90000 9 245
1954008S12066 1954 3 SI MM NOT_NAMED 1954-01-10 09:00:00 NR -12.8921 60.7615 main 870 838 _____P________ -1 -12.8921 60.7615 99 7 237
1954008S12066 1954 3 SI MM NOT_NAMED 1954-01-10 12:00:00 NR -13.1021 60.4570 main 838 806 _____P________ -1 -13.1021 60.4570 99 7 233
1954008S12066 1954 3 SI MM NOT_NAMED 1954-01-10 15:00:00 NR -13.3258 60.1768 main 806 774 _____P________ -1 -13.3258 60.1768 99 7 229
1954008S12066 1954 3 SI MM NOT_NAMED 1954-01-10 18:00:00 NR -13.5590 59.9112 main 764 736 _____P________ -1 -13.5590 59.9112 99 7 227
1954008S12066 1954 3 SI MM NOT_NAMED 1954-01-10 21:00:00 NR -13.7973 59.6505 main 736 706 _____P________ -1 -13.7973 59.6505 99 7 227
1954008S12066 1954 3 SI MM NOT_NAMED 1954-01-11 00:00:00 NR -14.0365 59.3849 main 706 665 _____P________ -1 -14.0365 59.3849 99 7 228
1954008S12066 1954 3 SI MM NOT_NAMED 1954-01-11 03:00:00 NR -14.2722 59.1046 main 665 637 _____P________ -1 -14.2722 59.1046 99 7 231
1954008S12066 1954 3 SI MM NOT_NAMED 1954-01-11 06:00:00 NR -14.5000 58.8000 reunion main 637 608 _____O________ -1 -14.5000 58.8000 99 9.90000 8 237
1954008S12066 1954 3 SI MM NOT_NAMED 1954-01-11 09:00:00 NR -14.7056 58.4244 main 608 582 _____P________ -1 -14.7056 58.4244 99 9 242
1954008S12066 1954 3 SI MM NOT_NAMED 1954-01-11 12:00:00 NR -14.9054 58.0265 main 582 559 _____P________ -1 -14.9054 58.0265 99 9 243
1954008S12066 1954 3 SI MM NOT_NAMED 1954-01-11 15:00:00 NR -15.0996 57.6123 main 559 537 _____P________ -1 -15.0996 57.6123 99 9 245
1954008S12066 1954 3 SI MM NOT_NAMED 1954-01-11 18:00:00 NR -15.2885 57.1874 main 538 520 _____P________ -1 -15.2885 57.1874 99 9 246
1954008S12066 1954 3 SI MM NOT_NAMED 1954-01-11 21:00:00 NR -15.4726 56.7579 main 520 512 _____P________ -1 -15.4726 56.7579 99 9 246
1954008S12066 1954 3 SI MM NOT_NAMED 1954-01-12 00:00:00 NR -15.6522 56.3295 main 508 503 _____P________ -1 -15.6522 56.3295 99 9 247
1954008S12066 1954 3 SI MM NOT_NAMED 1954-01-12 03:00:00 NR -15.8279 55.9083 main 510 500 _____P________ -1 -15.8279 55.9083 99 9 246
1954008S12066 1954 3 SI MM NOT_NAMED 1954-01-12 06:00:00 NR -16.0000 55.5000 reunion main 505 499 _____O________ -1 -16.0000 55.5000 99 9.90000 8 245
1954008S12066 1954 3 SI MM NOT_NAMED 1954-01-12 09:00:00 NR -16.1709 55.1318 main 500 471 _____P________ -1 -16.1709 55.1318 99 8 244
1954008S12066 1954 3 SI MM NOT_NAMED 1954-01-12 12:00:00 NR -16.3377 54.7749 main 471 434 _____P________ -1 -16.3377 54.7749 99 8 244
1954008S12066 1954 3 SI MM NOT_NAMED 1954-01-12 15:00:00 NR -16.5014 54.4264 main 434 407 _____P________ -1 -16.5014 54.4264 99 7 244
1954008S12066 1954 3 SI MM NOT_NAMED 1954-01-12 18:00:00 NR -16.6628 54.0832 main 411 385 _____P________ -1 -16.6628 54.0832 99 7 244
1954008S12066 1954 3 SI MM NOT_NAMED 1954-01-12 21:00:00 NR -16.8225 53.7421 main 376 356 _____P________ -1 -16.8225 53.7421 99 7 244
1954008S12066 1954 3 SI MM NOT_NAMED 1954-01-13 00:00:00 NR -16.9815 53.3999 main 356 332 _____P________ -1 -16.9815 53.3999 99 7 244
1954008S12066 1954 3 SI MM NOT_NAMED 1954-01-13 03:00:00 NR -17.1404 53.0536 main 332 303 _____P________ -1 -17.1404 53.0536 99 7 245
1954008S12066 1954 3 SI MM NOT_NAMED 1954-01-13 06:00:00 NR -17.3000 52.7000 reunion main 303 281 _____O________ -1 -17.3000 52.7000 99 9.90000 8 245
1954008S12066 1954 3 SI MM NOT_NAMED 1954-01-13 09:00:00 NR -17.4582 52.3334 main 276 250 _____P________ -1 -17.4582 52.3334 99 8 246
1954008S12066 1954 3 SI MM NOT_NAMED 1954-01-13 12:00:00 NR -17.6159 51.9616 main 250 216 _____P________ -1 -17.6159 51.9616 99 8 246
1954008S12066 1954 3 SI MM NOT_NAMED 1954-01-13 15:00:00 NR -17.7741 51.5841 main 221 181 _____P________ -1 -17.7741 51.5841 99 8 246
1954008S12066 1954 3 SI MM NOT_NAMED 1954-01-13 18:00:00 NR -17.9336 51.2006 main 181 144 _____P________ -1 -17.9336 51.2006 99 8 246
1954008S12066 1954 3 SI MM NOT_NAMED 1954-01-13 21:00:00 NR -18.0951 50.8108 main 144 106 _____P________ -1 -18.0951 50.8108 99 8 246
1954008S12066 1954 3 SI MM NOT_NAMED 1954-01-14 00:00:00 NR -18.2594 50.4144 main 106 67 _____P________ -1 -18.2594 50.4144 99 8 246
1954008S12066 1954 3 SI MM NOT_NAMED 1954-01-14 03:00:00 NR -18.4275 50.0109 main 67 38 _____P________ -1 -18.4275 50.0109 99 8 246
1954008S12066 1954 3 SI MM NOT_NAMED 1954-01-14 06:00:00 NR -18.6000 49.6000 reunion main 38 10 _____O________ -1 -18.6000 49.6000 99 9.90000 9 245
1954008S12066 1954 3 SI MM NOT_NAMED 1954-01-14 09:00:00 NR -18.7915 49.1739 main 10 0 _____P________ -1 -18.7915 49.1739 99 9 245
1954008S12066 1954 3 SI MM NOT_NAMED 1954-01-14 12:00:00 NR -18.9890 48.7384 main 0 0 _____P________ -1 -18.9890 48.7384 99 9 244
1954008S12066 1954 3 SI MM NOT_NAMED 1954-01-14 15:00:00 NR -19.1888 48.2965 main 0 0 _____P________ -1 -19.1888 48.2965 99 9 245
1954008S12066 1954 3 SI MM NOT_NAMED 1954-01-14 18:00:00 NR -19.3875 47.8513 main 0 0 _____P________ -1 -19.3875 47.8513 99 9 245
1954008S12066 1954 3 SI MM NOT_NAMED 1954-01-14 21:00:00 NR -19.5814 47.4059 main 0 0 _____P________ -1 -19.5814 47.4059 99 9 246
1954008S12066 1954 3 SI MM NOT_NAMED 1954-01-15 00:00:00 NR -19.7671 46.9634 main 0 0 _____P________ -1 -19.7671 46.9634 99 9 247
1954008S12066 1954 3 SI MM NOT_NAMED 1954-01-15 03:00:00 NR -19.9411 46.5270 main 0 0 _____P________ -1 -19.9411 46.5270 99 9 248
1954008S12066 1954 3 SI MM NOT_NAMED 1954-01-15 06:00:00 NR -20.1000 46.1000 reunion main 0 0 _____O________ -1 -20.1000 46.1000 99 9.90000 9 250
1954008S12066 1954 3 SI MM NOT_NAMED 1954-01-15 09:00:00 NR -20.2401 45.6590 main 0 0 _____P________ -1 -20.2401 45.6590 99 9 252
1954008S12066 1954 3 SI MM NOT_NAMED 1954-01-15 12:00:00 NR -20.3667 45.2224 main 0 0 _____P________ -1 -20.3667 45.2224 99 8 253
1954008S12066 1954 3 SI MM NOT_NAMED 1954-01-15 15:00:00 NR -20.4806 44.7958 main 0 0 _____P________ -1 -20.4806 44.7958 99 8 255
1954008S12066 1954 3 SI MM NOT_NAMED 1954-01-15 18:00:00 NR -20.5830 44.3843 main 0 0 _____P________ -1 -20.5830 44.3843 99 8 255
1954008S12066 1954 3 SI MM NOT_NAMED 1954-01-15 21:00:00 NR -20.6750 43.9936 main 0 0 _____P________ -1 -20.6750 43.9936 99 7 256
1954008S12066 1954 3 SI MM NOT_NAMED 1954-01-16 00:00:00 NR -20.7577 43.6291 main 31 31 _____P________ -1 -20.7577 43.6291 99 7 256
1954008S12066 1954 3 SI MM NOT_NAMED 1954-01-16 03:00:00 NR -20.8323 43.2960 main 62 62 _____P________ -1 -20.8323 43.2960 99 6 256
1954008S12066 1954 3 SI MM NOT_NAMED 1954-01-16 06:00:00 NR -20.9000 43.0000 reunion main 76 76 _____O________ -1 -20.9000 43.0000 99 9.90000 5 253
1954008S12066 1954 3 SI MM NOT_NAMED 1954-01-16 09:00:00 NR -20.9886 42.7343 main 94 94 _____P________ -1 -20.9886 42.7343 99 5 250
1954008S12066 1954 3 SI MM NOT_NAMED 1954-01-16 12:00:00 NR -21.0717 42.5045 main 108 108 _____P________ -1 -21.0717 42.5045 99 4 248
1954008S12066 1954 3 SI MM NOT_NAMED 1954-01-16 15:00:00 NR -21.1465 42.3072 main 128 126 _____P________ -1 -21.1465 42.3072 99 4 248
1954008S12066 1954 3 SI MM NOT_NAMED 1954-01-16 18:00:00 NR -21.2105 42.1395 main 146 146 _____P________ -1 -21.2105 42.1395 99 3 248
1954008S12066 1954 3 SI MM NOT_NAMED 1954-01-16 21:00:00 NR -21.2606 41.9980 main 155 155 _____P________ -1 -21.2606 41.9980 99 3 251
1954008S12066 1954 3 SI MM NOT_NAMED 1954-01-17 00:00:00 NR -21.2941 41.8797 main 164 164 _____P________ -1 -21.2941 41.8797 99 2 257
1954008S12066 1954 3 SI MM NOT_NAMED 1954-01-17 03:00:00 NR -21.3082 41.7814 main 173 173 _____P________ -1 -21.3082 41.7814 99 5 322
1954008S12066 1954 3 SI MM NOT_NAMED 1954-01-17 06:00:00 TS -20.8714 41.5286 reunion main 214 214 O____O___OO___ jtwc_sh SH051954 -20.3000 41.3000 -1 -21.3000 41.7000 99 9.90000 -20.3000 41.3000 TC 25 -20.3000 41.3000 7 7 339
1954008S12066 1954 3 SI MM NOT_NAMED 1954-01-17 09:00:00 TS -20.6297 41.4970 main 226 226 P____P___PP___ SH051954 -20.2000 41.4600 -1 -21.2727 41.5636 99 -20.2000 41.4600 TC 25 -20.2033 41.4376 7 4 0
1954008S12066 1954 3 SI MM NOT_NAMED 1954-01-17 12:00:00 TS -20.4468 41.5445 main 235 226 O____P___OP___ jtwc_sh SH051954 -20.1000 41.6000 -1 -21.2233 41.4420 99 -20.1000 41.6000 TC 25 -20.1052 41.5702 7 4 17
1954008S12066 1954 3 SI MM NOT_NAMED 1954-01-17 15:00:00 TS -20.2897 41.6124 main 232 230 P____P___PP___ SH051954 -20.0000 41.7075 -1 -21.1544 41.3419 99 -20.0000 41.7075 TC 30 -20.0045 41.6926 7 3 24
1954008S12066 1954 3 SI MM NOT_NAMED 1954-01-17 18:00:00 TS -20.1921 41.6676 main 230 230 O____P___OO___ jtwc_sh SH051954 -19.9000 41.8000 -1 -21.0682 41.2702 99 -19.9000 41.8000 TC 35 -19.9000 41.8000 2 2 30
1954008S12066 1954 3 SI MM NOT_NAMED 1954-01-17 21:00:00 TS -20.0898 41.7311 main 236 228 P____P___PP___ SH051954 -19.8000 41.9000 -1 -20.9673 41.2336 99 -19.8000 41.9000 TC 35 -19.7918 41.8909 2 2 31
1954008S12066 1954 3 SI MM NOT_NAMED 1954-01-18 00:00:00 TS -19.9847 41.8040 main 236 231 O____P___OP___ jtwc_sh SH051954 -19.7000 42.0000 -1 -20.8541 41.2386 99 -19.7000 42.0000 TC 35 -19.6848 41.9774 2 3 33
1954008S12066 1954 3 SI MM NOT_NAMED 1954-01-18 03:00:00 TS -19.8753 41.8843 main 231 227 P____P___PP___ SH051954 -19.5925 42.0850 -1 -20.7309 41.2919 99 -19.5925 42.0850 TC 35 -19.5855 42.0753 2 3 41
1954008S12066 1954 3 SI MM NOT_NAMED 1954-01-18 06:00:00 TS -19.7750 42.0000 reunion main 227 215 O____O___OO___ jtwc_sh SH051954 -19.5000 42.2000 -1 -20.6000 41.4000 99 9.90000 -19.5000 42.2000 TC 35 -19.5000 42.2000 2 3 58
1954008S12066 1954 3 SI MM NOT_NAMED 1954-01-18 09:00:00 TS -19.6949 42.1927 main 215 196 P____P___PP___ SH051954 -19.4425 42.3850 -1 -20.4671 41.6257 99 -19.4425 42.3850 TC 35 -19.4276 42.3753 2 4 69
1954008S12066 1954 3 SI MM NOT_NAMED 1954-01-18 12:00:00 TS -19.6232 42.4230 main 196 173 O____P___OP___ jtwc_sh SH051954 -19.4000 42.6000 -1 -20.3226 41.9143 99 -19.4000 42.6000 TC 35 -19.3701 42.5776 2 5 71
1954008S12066 1954 3 SI MM NOT_NAMED 1954-01-18 15:00:00 TS -19.5456 42.6590 main 163 143 P____P___PP___ SH051954 -19.3425 42.8000 -1 -20.1698 42.2449 99 -19.3425 42.8000 TC 35 -19.3276 42.7910 2 5 72
1954008S12066 1954 3 SI MM NOT_NAMED 1954-01-18 18:00:00 TS -19.4779 42.8991 main 143 120 O____P___OO___ jtwc_sh SH051954 -19.3000 43.0000 -1 -20.0118 42.5965 99 -19.3000 43.0000 TC 35 -19.3000 43.0000 2 5 76
1954008S12066 1954 3 SI MM NOT_NAMED 1954-01-18 21:00:00 TS -19.4337 43.1404 main 120 90 P____P___PP___ SH051954 -19.2925 43.2075 -1 -19.8521 42.9485 99 -19.2925 43.2075 TC 35 -19.2978 43.1983 2 4 80
1954008S12066 1954 3 SI MM NOT_NAMED 1954-01-19 00:00:00 TS -19.4005 43.3668 main 90 71 O____P___OP___ jtwc_sh SH051954 -19.3000 43.4000 -1 -19.6944 43.2801 99 -19.3000 43.4000 TC 35 -19.3075 43.3873 2 4 81
1954008S12066 1954 3 SI MM NOT_NAMED 1954-01-19 03:00:00 TS -19.3677 43.5646 main 71 57 P____P___PP___ SH051954 -19.3075 43.5650 -1 -19.5424 43.5707 99 -19.3075 43.5650 TC 35 -19.3135 43.5577 2 3 77
1954008S12066 1954 3 SI MM NOT_NAMED 1954-01-19 06:00:00 TS -19.3250 43.7250 reunion main 57 47 O____O___OO___ jtwc_sh SH051954 -19.3000 43.7000 -1 -19.4000 43.8000 99 9.90000 -19.3000 43.7000 TC 35 -19.3000 43.7000 2 3 68
1954008S12066 1954 3 SI MM NOT_NAMED 1954-01-19 09:00:00 TS -19.2640 43.8406 main 47 33 P____P___PP___ SH051954 -19.2650 43.8150 -1 -19.2672 43.9121 99 -19.2650 43.8150 TC 35 -19.2587 43.8201 2 2 53
1954008S12066 1954 3 SI MM NOT_NAMED 1954-01-19 12:00:00 TS -19.1841 43.9205 main 33 21 O____P___OP___ jtwc_sh SH051954 -19.2000 43.9000 -1 -19.1415 43.9718 99 -19.2000 43.9000 TC 35 -19.1949 43.9101 2 2 36
1954008S12066 1954 3 SI MM NOT_NAMED 1954-01-19 15:00:00 TS -19.0907 43.9715 main 21 21 P____P___PP___ SH051954 -19.1150 43.9650 -1 -19.0240 43.9858 99 -19.1150 43.9650 TC 35 -19.1087 43.9701 2 2 19
1954008S12066 1954 3 SI MM NOT_NAMED 1954-01-19 18:00:00 TS -18.9790 43.9901 main 21 21 O____P___OO___ jtwc_sh SH051954 -19.0000 44.0000 -1 -18.9160 43.9606 99 -19.0000 44.0000 TC 35 -19.0000 44.0000 2 2 0
1954008S12066 1954 3 SI MM NOT_NAMED 1954-01-19 21:00:00 TS -18.8492 43.9862 main 21 21 P____P___PP___ SH051954 -18.8575 44.0150 -1 -18.8185 43.9028 99 -18.8575 44.0150 TC 35 -18.8634 44.0118 2 3 353
1954008S12066 1954 3 SI MM NOT_NAMED 1954-01-20 00:00:00 TS -18.7100 43.9535 main 21 21 O____P___OP___ jtwc_sh SH051954 -18.7000 44.0000 -1 -18.7326 43.8191 99 -18.7000 44.0000 TC 35 -18.7075 43.9949 2 3 343
1954008S12066 1954 3 SI MM NOT_NAMED 1954-01-20 03:00:00 TS -18.5768 43.8966 main 23 15 P____P___PP___ SH051954 -18.5500 43.9575 -1 -18.6594 43.7160 99 -18.5500 43.9575 TC 35 -18.5478 43.9556 2 3 336
1954008S12066 1954 3 SI MM NOT_NAMED 1954-01-20 06:00:00 TS -18.4500 43.8250 reunion main 21 21 O____O___OO___ jtwc_sh SH051954 -18.4000 43.9000 -1 -18.6000 43.6000 99 9.90000 -18.4000 43.9000 TC 35 -18.4000 43.9000 2 3 333
1954008S12066 1954 3 SI MM NOT_NAMED 1954-01-20 09:00:00 TS -18.3095 43.7547 main 21 21 P____P___PP___ SH051954 -18.2350 43.8575 -1 -18.5189 43.4604 99 -18.2350 43.8575 TC 35 -18.2491 43.8433 2 3 330
1954008S12066 1954 3 SI MM NOT_NAMED 1954-01-20 12:00:00 TS -18.1914 43.6672 main 31 31 O____P___OP___ jtwc_sh SH051954 -18.1000 43.8000 -1 -18.4481 43.2965 99 -18.1000 43.8000 TC 35 -18.1175 43.7723 2 3 316
1954008S12066 1954 3 SI MM NOT_NAMED 1954-01-20 15:00:00 TS -18.1148 43.5565 main 42 42 P____P___PP___ SH051954 -18.0200 43.7075 -1 -18.3921 43.1208 99 -18.0200 43.7075 TC 35 -18.0272 43.6902 2 2 295
1954008S12066 1954 3 SI MM NOT_NAMED 1954-01-20 18:00:00 TS -18.0889 43.4364 main 63 63 O____P___OO___ jtwc_sh SH051954 -18.0000 43.6000 -1 -18.3557 42.9457 99 -18.0000 43.6000 TC 35 -18.0000 43.6000 2 2 273
1954008S12066 1954 3 SI MM NOT_NAMED 1954-01-20 21:00:00 TS -18.1021 43.3127 main 73 73 P____P___PP___ SH051954 -18.0125 43.5000 -1 -18.3435 42.7837 99 -18.0125 43.5000 TC 35 -18.0400 43.4669 2 2 249
1954008S12066 1954 3 SI MM NOT_NAMED 1954-01-21 00:00:00 TS -18.1763 43.1951 main 84 84 O____P___OP___ jtwc_sh SH051954 -18.1000 43.4000 -1 -18.3603 42.6472 99 -18.1000 43.4000 TC 35 -18.1450 43.3331 2 3 226
1954008S12066 1954 3 SI MM NOT_NAMED 1954-01-21 03:00:00 TS -18.3134 43.0803 main 95 94 P____P___PP___ SH051954 -18.2700 43.2701 -1 -18.4109 42.5485 99 -18.2700 43.2701 TC 35 -18.3025 43.2327 2 4 207
1954008S12066 1954 3 SI MM NOT_NAMED 1954-01-21 06:00:00 TS -18.5000 43.0250 reunion main 106 97 O____O___OO___ jtwc_sh SH051954 -18.5000 43.2000 -1 -18.5000 42.5000 99 9.90000 -18.5000 43.2000 TC 35 -18.5000 43.2000 2 4 0
1954008S12066 1954 3 SI MM NOT_NAMED 1954-01-21 09:00:00 TS -18.7091 43.0805 main 100 95 P____P___PP___ SH051954 -18.7425 43.2550 -1 -18.6250 42.5261 99 -18.7425 43.2550 TC 35 -18.7263 43.2858 2 5 158
1954008S12066 1954 3 SI MM NOT_NAMED 1954-01-21 12:00:00 TS -18.9435 43.2095 main 101 84 O____P___OP___ jtwc_sh SH051954 -19.0000 43.4000 -1 -18.7887 42.5986 99 -19.0000 43.4000 TC 35 -18.9852 43.4393 2 6 149
1954008S12066 1954 3 SI MM NOT_NAMED 1954-01-21 15:00:00 TS -19.1919 43.3838 main 84 71 P____P___PP___ SH051954 -19.2651 43.5999 -1 -18.9861 42.7120 99 -19.2651 43.5999 TC 35 -19.2514 43.6233 2 6 145
1954008S12066 1954 3 SI MM NOT_NAMED 1954-01-21 18:00:00 TS -19.4280 43.5652 main 71 71 O____P___OO___ jtwc_sh SH051954 -19.5000 43.8000 -1 -19.2121 42.8608 99 -19.5000 43.8000 TC 35 -19.5000 43.8000 2 5 145
1954008S12066 1954 3 SI MM NOT_NAMED 1954-01-21 21:00:00 TS -19.6091 43.6911 main 76 62 P____P___PP___ SH051954 -19.6575 43.9151 -1 -19.4616 43.0395 99 -19.6575 43.9151 TC 35 -19.6598 43.8947 2 4 147
1954008S12066 1954 3 SI MM NOT_NAMED 1954-01-22 00:00:00 TS -19.7835 43.8053 main 62 53 O____P___OP___ jtwc_sh SH051954 -19.8000 44.0000 -1 -19.7294 43.2426 99 -19.8000 44.0000 TC 35 -19.8048 43.9785 2 4 149
1954008S12066 1954 3 SI MM NOT_NAMED 1954-01-22 03:00:00 TS -19.9769 43.9270 main 56 30 P____P___PP___ SH051954 -19.9625 44.0852 -1 -20.0106 43.4647 99 -19.9625 44.0852 TC 35 -19.9723 44.0730 2 5 150
1954008S12066 1954 3 SI MM NOT_NAMED 1954-01-22 06:00:00 TS -20.2250 44.0750 reunion main 30 0 O____O___OO___ jtwc_sh SH051954 -20.2000 44.2000 -1 -20.3000 43.7000 99 9.90000 -20.2000 44.2000 TC 35 -20.2000 44.2000 2 7 151
1954008S12066 1954 3 SI MM NOT_NAMED 1954-01-22 09:00:00 TS -20.5702 44.2767 main 0 0 P____P___PP___ SH051954 -20.5700 44.3775 -1 -20.6092 43.9513 99 -20.5700 44.3775 TC 30 -20.5315 44.4007 2 9 151
1954008S12066 1954 3 SI MM NOT_NAMED 1954-01-22 12:00:00 TS -20.9652 44.5150 main 0 0 O____P___OP___ jtwc_sh SH051954 -21.0000 44.6000 -1 -20.9354 44.2256 99 -21.0000 44.6000 TC 25 -20.9253 44.6343 2 9 149
1954008S12066 1954 3 SI MM NOT_NAMED 1954-01-22 15:00:00 TS -21.3564 44.7760 main 0 0 P____P___PP___ SH051954 -21.4000 44.8574 -1 -21.2689 44.5134 99 -21.4000 44.8574 TC 25 -21.3565 44.8758 2 9 149
1954008S12066 1954 3 SI MM NOT_NAMED 1954-01-22 18:00:00 TS -21.7499 45.0262 main 0 0 O____P___OO___ jtwc_sh SH051954 -21.8000 45.1000 -1 -21.5996 44.8047 99 -21.8000 45.1000 TC 25 -21.8000 45.1000 7 9 152
1954008S12066 1954 3 SI MM NOT_NAMED 1954-01-22 21:00:00 TS -22.1346 45.2268 main 0 0 P____P___PP___ SH051954 -22.1924 45.2652 -1 -21.9178 45.0893 99 -22.1924 45.2652 TC 25 -22.2357 45.2874 7 8 155
1954008S12066 1954 3 SI MM NOT_NAMED 1954-01-23 00:00:00 TS -22.4955 45.3966 main 0 0 O____P___OP___ jtwc_sh SH051954 -22.6000 45.4000 -1 -22.2137 45.3570 99 -22.6000 45.4000 TC 25 -22.6623 45.4426 7 8 155
1954008S12066 1954 3 SI MM NOT_NAMED 1954-01-23 03:00:00 TS -22.8236 45.5721 main 0 0 P____P___PP___ SH051954 -23.0401 45.5447 -1 -22.4777 45.5974 99 -23.0401 45.5447 TC 25 -23.0827 45.5765 7 6 149
1954008S12066 1954 3 SI MM NOT_NAMED 1954-01-23 06:00:00 TS -23.0429 45.7571 reunion main 0 0 O____O___OO___ jtwc_sh SH051954 -23.5000 45.7000 -1 -22.7000 45.8000 99 9.90000 -23.5000 45.7000 TC 25 -23.5000 45.7000 7 4 98
1954008S12066 1954 3 SI MM NOT_NAMED 1954-01-23 09:00:00 NR -22.8739 45.9569 main 0 0 _____P________ SH051954 -1 -22.8739 45.9569 99 TC 7 3 82
1954008S12066 1954 3 SI MM NOT_NAMED 1954-01-23 12:00:00 NR -23.0031 46.0713 main 0 0 _____P________ -1 -23.0031 46.0713 99 7 3 141
1954008S12066 1954 3 SI MM NOT_NAMED 1954-01-23 15:00:00 NR -23.0941 46.1490 main 0 0 _____P________ -1 -23.0941 46.1490 99 7 2 144
1954008S12066 1954 3 SI MM NOT_NAMED 1954-01-23 18:00:00 NR -23.1534 46.1961 main 0 0 _____P________ -1 -23.1534 46.1961 99 1 142
1954008S12066 1954 3 SI MM NOT_NAMED 1954-01-23 21:00:00 NR -23.1873 46.2186 main 0 0 _____P________ -1 -23.1873 46.2186 99 1 150
1954008S12066 1954 3 SI MM NOT_NAMED 1954-01-24 00:00:00 NR -23.2021 46.2226 main 0 0 _____P________ -1 -23.2021 46.2226 99 0 0
1954008S12066 1954 3 SI MM NOT_NAMED 1954-01-24 03:00:00 NR -23.2042 46.2144 main 0 0 _____P________ -1 -23.2042 46.2144 99 0 0
1954008S12066 1954 3 SI MM NOT_NAMED 1954-01-24 06:00:00 NR -23.2000 46.2000 reunion main 0 _____O________ -1 -23.2000 46.2000 99 9.90000 0 0

About IBTrACS Database

This database is a web-friendly format of International Best Track Archive for Climate Stewardship (IBTrACS), a global best track data archive curated by NOAA dating back to 1842.

Updated: 2021-10-21